Mullan, ID

9:39 AM PDT on September 17, 2014 (GMT -0700)
ITD Wallace Viaduct ID US | Change Station
CLOSE
Current Station
Personal Weather Station
Location: Wallace, ID
Elevation: 2791 ft
Nearby Weather Stations

Elev 2791 ft 47.47 °N, 115.91 °W | Updated 54 minutes ago

Clear
Clear
54 °F
Feels Like 54 °F
N
0
Wind Variable Wind from ESE
Gusts 2.0 mph

Today
High -- | Low -- °F
--% Chance of Precip.
Yesterday
High -- | Low -- °F
Precip. -- in
6:23 AM 6:50 PM
Waning Crescent, 35% visible
Pressure 29.84 in
Visibility 10.0 miles
Clouds Clear
Dew Point 46 °F
Humidity 76%
Rainfall 0.00 in
Snow Depth 0 in , 0 in , 0 in
UV 3 out of 12
Pollen 6.90 out of 12
Air Quality Not available.
Flu Activity Not available.
METAR KCOE 171635Z AUTO 03009KT 10SM CLR 18/10 A2984 RMK AO1

More Conditions Fewer Conditions

Pressure 29.84 in
Visibility 10.0 miles
Clouds Clear
Dew Point 46 °F
Humidity 76%
Rainfall 0.00 in
Snow Depth 0 in , 0 in , 0 in
UV 3 out of 12
Pollen 6.90 out of 12
Air Quality Not available.
Flu Activity Not available.
METAR KCOE 171635Z AUTO 03009KT 10SM CLR 18/10 A2984 RMK AO1

More Conditions Fewer Conditions

10-Day Weather Forecast

Almanac

Astronomy

Sep. 17, 2014 Rise Set
Actual Time 6:23 AM PDT 6:50 PM PDT
Civil Twilight 5:52 AM PDT 7:21 PM PDT
Nautical Twilight 5:16 AM PDT 7:58 PM PDT
Astronomical Twilight 4:38 AM PDT 8:35 PM PDT
Moon 12:09 AM PDT 3:20 PM PDT
Length of Visible Light 13h 29m
Length of Day
12h 27m
Tomorrow will be 3m 23s shorter.
Waning Crescent, 35% of the Moon is Illuminated
Today
Waning Crescent
Sep 24
New
Oct 1
First Quarter
Oct 8
Full
Oct 15
Last Quarter

Today's Extremes

State Highs State Lows

Community

WunderPhotos

Upload Photos

1,754,100 photos uploaded!

Nearby

Snow Depth

Station Depth Elevation
Squaw Flat 0 in 6240 ft
Wildhorse Divide 0 in 6490 ft
Cozy Cove 0 in 5380 ft
Vienna Mine 0 in 8960 ft
Emigrant Summit 0 in 7390 ft

Earthquake Activity

City Distance Mag. Time & Date
No recent earthquake activity has been reported nearby.
Minimum magnitude displayed is 2.5.

Coastal Water Temperatures

Place Temperature
No Stations Reporting

Nearby Weather Stations